M I D A S
Marine Information and Data Acquisition System
Tripno 461 of the Zeeleeuw from 2003-04-14 08:48:46 to 2003-04-14 14:26:54
Back to CruiseResearch ActivitiesStationsMapUnderway DataData graphs

EquipmentUnitsComment
TimeDGPSUTC
LatitudeDGPSDM.mWGS84
LongitudeDGPSDM.mWGS84
TemperatureSBE03/SBE38deg celciusITS90
ConductivitySBE21S/mITS90
SalinitySBE21 Practical Salinity Units
ChlorophylAChelsea fluorimeterg/lCalibrated in Aceton
Missing or incorrect values are displayed as -999
Sea surface data collected by the RV Zeeleeuw from 2003-04-14 08:48:46 to 2003-04-14 14:26:54
Time Latitude Longitude Temperature Conductivity Salinity ChlorophylA
2003-04-14 08:49:52 51°13.61 2°56.06 13.864297 0.034722 0.178853 -0.848668
2003-04-14 08:50:52 51°13.64 2°55.95 13.866554 0.035449 0.182673 -0.848668
2003-04-14 08:51:52 51°13.67 2°55.84 13.864342 0.03784 0.195166 -0.848668
2003-04-14 08:52:52 51°13.69 2°55.75 13.878277 0.036489 0.188165 -0.848668
2003-04-14 08:53:52 51°13.7 2°55.74 13.870712 0.037008 0.190895 -0.848668
2003-04-14 08:54:52 51°13.72 2°55.73 13.873145 0.038048 0.196356 -0.814958
2003-04-14 08:55:52 51°13.78 2°55.68 13.905785 0.035033 0.180672 -0.848668
2003-04-14 08:56:52 51°13.88 2°55.6 -999 0.032331 0.16669 -0.848668
2003-04-14 08:57:52 51°14.02 2°55.5 -999 0.031603 0.162959 -0.848668
2003-04-14 08:58:52 51°14.16 2°55.39 -999 0.031707 0.163532 -0.848668
2003-04-14 08:59:52 51°14.28 2°55.22 -999 0.033162 0.171098 -0.848668
2003-04-14 09:00:52 51°14.38 2°55.03 -999 0.033059 0.170559 -0.848668
2003-04-14 09:01:52 51°14.54 2°54.93 -999 0.036489 0.188406 -0.848668
2003-04-14 09:02:52 51°14.68 2°54.84 -999 0.035345 0.182466 -0.848668
2003-04-14 09:03:52 51°14.79 2°54.85 -999 0.04231 0.219007 -0.848668
2003-04-14 09:04:52 51°14.87 2°54.88 -999 0.043557 0.225609 -0.882377
2003-04-14 09:05:52 51°14.94 2°54.92 -999 0.044181 0.228914 -0.848668
2003-04-14 09:06:52 51°14.99 2°54.95 -999 0.039607 0.204895 -0.848668
2003-04-14 09:07:52 51°15.07 2°54.95 -999 0.039295 0.203268 -0.848668
2003-04-14 09:08:52 51°15.22 2°54.79 -999 0.039191 0.202771 -0.848668
2003-04-14 09:09:52 51°15.38 2°54.59 -999 0.038983 0.201717 -0.848668
2003-04-14 09:10:52 51°15.54 2°54.4 -999 3.436688 30.433394 19.916324
2003-04-14 09:11:52 51°15.71 2°54.21 -999 3.262397 30.358631 17.3207
2003-04-14 09:12:52 51°15.89 2°54.02 -999 3.253869 30.428095 16.545383
2003-04-14 09:13:52 51°16.08 2°53.82 -999 3.246077 30.43868 19.343264
2003-04-14 09:14:52 51°16.27 2°53.62 -999 3.249658 30.511714 19.950033
2003-04-14 09:15:52 51°16.46 2°53.42 -999 3.257557 30.614742 20.961315
2003-04-14 09:16:52 51°16.64 2°53.21 -999 3.272511 30.797279 25.141281
2003-04-14 09:17:52 51°16.82 2°53 -999 3.273248 30.823857 29.995435
2003-04-14 09:18:52 51°16.99 2°52.78 -999 3.270194 30.797087 38.051982
2003-04-14 09:19:52 51°17.17 2°52.55 -999 3.2703 30.814181 44.524187
2003-04-14 09:20:52 51°17.34 2°52.31 -999 3.272722 30.84456 53.490888
2003-04-14 09:21:52 51°17.5 2°52.06 -999 3.270195 30.822541 68.424153
2003-04-14 09:22:52 51°17.66 2°51.81 -999 3.276092 30.914056 68.154477
2003-04-14 09:23:52 51°17.82 2°51.56 -999 3.277883 30.969384 68.188187
2003-04-14 09:24:52 51°17.98 2°51.31 -999 3.27683 30.989908 68.255606
2003-04-14 09:25:52 51°18.14 2°51.06 12.062694 3.277357 31.013066 65.154341
2003-04-14 09:26:52 51°18.3 2°50.81 11.239836 3.276304 31.005703 52.108802
2003-04-14 09:27:52 51°18.47 2°50.57 11.105217 3.280516 31.043981 39.670033
2003-04-14 09:28:52 51°18.63 2°50.32 10.589772 3.285572 31.126512 36.669896
2003-04-14 09:29:52 51°18.8 2°50.07 10.733288 3.287363 31.180837 28.512221
2003-04-14 09:30:52 51°18.96 2°49.83 10.84594 3.29663 31.269339 26.725623
2003-04-14 09:31:52 51°19.12 2°49.58 10.628386 3.299896 31.372252 24.703059
2003-04-14 09:32:52 51°19.28 2°49.34 10.905501 3.301581 31.394493 21.601794
2003-04-14 09:33:52 51°19.43 2°49.09 10.274383 3.295894 31.342036 21.062443
2003-04-14 09:34:52 51°19.39 2°48.95 12.22259 3.302634 31.395121 18.837623
2003-04-14 09:35:52 51°19.34 2°49.03 11.476157 3.302107 31.393311 20.185999
2003-04-14 09:36:52 51°19.34 2°49.07 11.27577 3.302423 31.386174 19.141007
2003-04-14 09:37:52 51°19.36 2°49.12 11.048837 3.302634 31.394373 18.871332
2003-04-14 09:38:52 51°19.35 2°49.13 12.021637 3.298 31.371709 24.905315
2003-04-14 09:39:52 51°19.35 2°49.15 11.144314 3.300739 31.414056 26.86046
2003-04-14 09:40:52 51°19.36 2°49.16 11.038774 3.299054 31.40602 29.1527
2003-04-14 09:41:52 51°19.36 2°49.17 10.807963 3.295473 31.369743 28.444802
2003-04-14 09:42:52 51°19.37 2°49.19 11.341239 3.295684 31.365978 27.871742
2003-04-14 09:43:52 51°19.38 2°49.21 9.680065 3.299896 31.407416 26.590785
2003-04-14 09:44:52 51°19.39 2°49.22 9.599324 3.300633 31.401712 25.444665
2003-04-14 09:45:52 51°19.4 2°49.23 9.545503 3.296631 31.364006 25.410956
2003-04-14 09:46:52 51°19.41 2°49.25 11.364442 3.294209 31.333986 24.837896
2003-04-14 09:47:52 51°19.42 2°49.26 11.630978 3.301054 31.402411 23.52323
2003-04-14 09:48:52 51°19.46 2°49.25 11.359342 3.302318 31.397774 22.91646
2003-04-14 09:49:52 51°19.58 2°49.09 10.787159 3.301265 31.382192 22.006306
2003-04-14 09:50:52 51°19.69 2°48.79 11.587408 3.303476 31.384564 22.680494
2003-04-14 09:51:52 51°19.78 2°48.47 10.316824 3.301054 31.379225 24.332255
2003-04-14 09:52:52 51°19.84 2°48.13 9.835889 3.300211 31.339749 25.040153
2003-04-14 09:53:52 51°19.87 2°47.9 10.412066 3.297894 31.301963 22.95017
2003-04-14 09:54:52 51°19.87 2°47.82 8.930585 3.298736 31.266221 18.736494
2003-04-14 09:55:52 51°19.87 2°47.81 11.12984 3.300527 31.279828 20.995024
2003-04-14 09:56:52 51°19.88 2°47.8 11.052253 3.302317 31.285266 20.320836
2003-04-14 09:57:52 51°19.88 2°47.8 11.026955 3.29842 31.23917 20.725349
2003-04-14 09:58:52 51°19.88 2°47.81 9.858972 3.298525 31.242499 23.186136
2003-04-14 09:59:52 51°19.88 2°47.82 10.258921 3.30158 31.29089 22.107435
2003-04-14 10:00:52 51°19.88 2°47.83 8.786477 3.300737 31.302846 22.3434
2003-04-14 10:01:52 51°19.88 2°47.85 11.436523 3.299263 31.274722 22.983879
2003-04-14 10:02:52 51°19.88 2°47.86 10.912162 3.29821 31.274798 22.141144
2003-04-14 10:03:52 51°19.89 2°47.88 10.152648 3.296419 31.241144 22.208563
2003-04-14 10:04:52 51°19.89 2°47.9 10.334792 3.301474 31.292755 21.298409
2003-04-14 10:05:52 51°19.89 2°47.93 10.731897 3.299263 31.27695 20.219708
2003-04-14 10:06:52 51°19.9 2°47.95 11.359986 3.300421 31.286892 21.80405
2003-04-14 10:07:52 51°19.9 2°47.97 11.696781 3.294313 31.223472 21.702922
2003-04-14 10:08:52 51°19.91 2°47.99 10.727305 3.297999 31.260704 22.579366
2003-04-14 10:09:52 51°19.91 2°48.02 10.538669 3.296209 31.235966 21.905178
2003-04-14 10:10:52 51°19.92 2°48.05 10.793739 3.299157 31.267676 21.197281
2003-04-14 10:11:52 51°19.92 2°48.07 10.986357 3.29484 31.242355 21.669212
2003-04-14 10:12:52 51°19.93 2°48.1 10.959139 3.297683 31.255159 20.826477
2003-04-14 10:13:52 51°19.94 2°48.13 10.989591 3.300316 31.281329 21.365828
2003-04-14 10:14:52 51°19.95 2°48.16 11.633448 3.298631 31.268084 19.54552
2003-04-14 10:15:52 51°19.95 2°48.19 11.295823 3.298842 31.266585 19.916324
2003-04-14 10:16:52 51°19.96 2°48.22 11.155098 3.304739 31.324821 20.65793
2003-04-14 10:17:52 51°19.97 2°48.25 10.512196 3.306108 31.336228 21.466956
2003-04-14 10:18:52 51°19.98 2°48.27 10.990099 3.301264 31.27792 20.860187
2003-04-14 10:19:52 51°19.99 2°48.3 10.924973 3.304107 31.324875 19.141007
2003-04-14 10:20:52 51°19.99 2°48.33 9.235071 3.30337 31.306723 17.792631
2003-04-14 10:21:52 51°19.99 2°48.37 11.256724 3.303265 31.305617 20.725349
2003-04-14 10:22:52 51°19.99 2°48.41 10.88371 3.302738 31.311234 21.938888
2003-04-14 10:23:52 51°19.98 2°48.45 10.744789 3.303159 31.305997 20.725349
2003-04-14 10:24:52 51°19.97 2°48.49 9.745265 3.305476 31.322156 21.80405
2003-04-14 10:25:52 51°19.96 2°48.53 11.259163 3.305476 31.333309 20.185999
2003-04-14 10:26:52 51°19.95 2°48.57 10.81153 3.306319 31.337697 19.950033
2003-04-14 10:27:52 51°19.93 2°48.6 11.308283 3.30674 31.336916 20.624221
2003-04-14 10:28:52 51°19.92 2°48.63 10.410575 3.307583 31.340559 20.489383
2003-04-14 10:29:52 51°19.91 2°48.67 10.040577 3.309162 31.349712 19.781486
2003-04-14 10:30:52 51°19.87 2°48.69 10.100968 3.308741 31.380275 21.332118
2003-04-14 10:31:52 51°19.77 2°48.61 10.613427 3.30832 31.404936 24.871606
2003-04-14 10:32:52 51°19.68 2°48.45 10.315051 3.30632 31.430964 30.568494
2003-04-14 10:33:52 51°19.6 2°48.22 11.024323 3.303476 31.403997 26.455947
2003-04-14 10:34:52 51°19.53 2°47.97 10.704619 3.298 31.337351 22.983879
2003-04-14 10:35:52 51°19.45 2°47.71 10.282836 3.302949 31.340982 19.680358
2003-04-14 10:36:52 51°19.37 2°47.42 10.129809 3.30337 31.340943 21.669212
2003-04-14 10:37:52 51°19.28 2°47.13 10.148717 3.306109 31.357814 21.871469
2003-04-14 10:38:52 51°19.19 2°46.84 10.284797 3.316535 31.467442 25.781759
2003-04-14 10:39:52 51°19.08 2°46.57 9.883034 3.332229 31.751745 45.872563
2003-04-14 10:40:52 51°18.91 2°46.41 10.276671 3.333177 31.767823 35.827161
2003-04-14 10:41:52 51°18.7 2°46.35 10.763706 3.332651 31.77894 40.849862
2003-04-14 10:42:52 51°18.49 2°46.31 10.630059 3.33086 31.759253 38.389076
2003-04-14 10:43:52 51°18.29 2°46.27 10.453999 3.331807 31.700412 32.591059
2003-04-14 10:44:52 51°18.11 2°46.12 10.220042 3.330858 31.546945 30.568494
2003-04-14 10:45:52 51°18 2°45.86 10.052903 3.327487 31.506335 33.0967
2003-04-14 10:46:52 51°17.91 2°45.56 9.686004 3.341391 31.716943 45.029828
2003-04-14 10:47:52 51°17.82 2°45.27 10.321772 3.332123 31.703745 45.636597
2003-04-14 10:48:52 51°17.74 2°44.97 10.115109 3.326226 31.689087 52.075093
2003-04-14 10:49:52 51°17.65 2°44.68 9.86245 3.320644 31.661862 53.592016
2003-04-14 10:50:52 51°17.56 2°44.38 9.845622 3.321276 31.667029 54.299913
2003-04-14 10:51:52 51°17.48 2°44.08 9.881201 3.318011 31.647638 57.502306
2003-04-14 10:52:52 51°17.33 2°43.85 9.732174 3.315062 31.611173 54.299913
2003-04-14 10:53:52 51°17.12 2°43.79 10.229997 3.312745 31.58442 50.457042
2003-04-14 10:54:52 51°16.91 2°43.75 9.961079 3.314325 31.60489 59.524871
2003-04-14 10:55:52 51°16.7 2°43.69 9.92728 3.312851 31.58327 62.92952
2003-04-14 10:56:52 51°16.49 2°43.63 9.818207 3.313061 31.583232 66.87352
2003-04-14 10:57:52 51°16.28 2°43.57 9.935872 3.316537 31.61694 68.289315
2003-04-14 10:58:52 51°16.07 2°43.51 10.432757 3.315905 31.611772 68.120768
2003-04-14 10:59:52 51°15.86 2°43.46 9.809553 3.314114 31.592098 68.154477
2003-04-14 11:00:52 51°15.66 2°43.4 10.177116 3.310744 31.562519 68.221896
2003-04-14 11:01:52 51°15.45 2°43.33 9.357631 3.307269 31.543126 68.188187
2003-04-14 11:02:52 51°15.24 2°43.25 9.926576 3.308849 31.558318 68.188187
2003-04-14 11:03:52 51°15.04 2°43.15 9.737213 3.311587 31.558609 68.289315
2003-04-14 11:04:52 51°14.89 2°42.93 9.510779 3.309584 31.410766 68.188187
2003-04-14 11:05:52 51°14.79 2°42.64 9.633764 3.309479 31.379826 68.188187
2003-04-14 11:06:52 51°14.71 2°42.34 10.391929 3.302317 31.32838 68.188187
2003-04-14 11:07:52 51°14.62 2°42.05 10.355647 3.310743 31.411008 68.154477
2003-04-14 11:08:52 51°14.54 2°41.75 10.103965 3.310111 31.402871 68.188187
2003-04-14 11:09:52 51°14.46 2°41.44 10.061292 3.307372 31.366629 68.356734
2003-04-14 11:10:52 51°14.37 2°41.14 10.001238 3.310321 31.367828 67.244324
2003-04-14 11:11:52 51°14.29 2°40.84 10.326766 3.308952 31.389198 68.356734
2003-04-14 11:12:52 51°14.2 2°40.53 10.001098 3.302001 31.321337 68.390443
2003-04-14 11:13:52 51°14.12 2°40.22 10.320185 3.292312 31.236576 68.154477
2003-04-14 11:14:52 51°14.03 2°39.91 10.289467 3.292102 31.252936 65.659982
2003-04-14 11:15:52 51°13.95 2°39.6 9.873542 3.288522 31.242772 68.154477
2003-04-14 11:16:52 51°13.86 2°39.28 9.812892 3.285468 31.2374 68.188187
2003-04-14 11:17:52 51°13.78 2°38.96 10.118995 3.284625 31.195813 68.188187
2003-04-14 11:18:52 51°13.64 2°38.72 10.176368 3.288732 31.224172 60.13164
2003-04-14 11:19:52 51°13.45 2°38.57 9.819383 3.305266 31.381012 68.188187
2003-04-14 11:20:52 51°13.26 2°38.39 9.6564 3.31285 31.511028 68.087059
2003-04-14 11:21:52 51°13.08 2°38.2 9.731514 3.315588 31.544409 68.120768
2003-04-14 11:22:52 51°12.9 2°38.01 10.737787 3.320538 31.601888 68.053349
2003-04-14 11:23:52 51°12.72 2°37.83 9.895625 3.326436 31.647527 68.053349
2003-04-14 11:24:52 51°12.54 2°37.66 9.740556 3.330438 31.692008 68.087059
2003-04-14 11:25:52 51°12.36 2°37.48 10.023185 3.330438 31.67918 68.053349
2003-04-14 11:26:52 51°12.17 2°37.3 9.990075 3.327278 31.605979 68.053349
2003-04-14 11:27:52 51°11.98 2°37.13 10.510194 3.326646 31.597822 68.053349
2003-04-14 11:28:52 51°11.79 2°36.97 10.898793 3.328226 31.635519 68.053349
2003-04-14 11:29:52 51°11.6 2°36.81 9.874811 3.327805 31.625813 68.01964
2003-04-14 11:30:52 51°11.41 2°36.64 9.678604 3.323486 31.566055 68.053349
2003-04-14 11:31:52 51°11.23 2°36.47 9.968869 3.323802 31.573886 68.01964
2003-04-14 11:32:52 51°11.04 2°36.3 10.325599 3.328542 31.596751 68.01964
2003-04-14 11:33:52 51°10.86 2°36.14 10.071646 3.323169 31.467723 68.087059
2003-04-14 11:34:52 51°10.67 2°35.98 10.795315 3.307582 31.272306 68.053349
2003-04-14 11:35:52 51°10.49 2°35.84 9.81896 3.301157 31.193924 68.087059
2003-04-14 11:36:52 51°10.29 2°35.76 10.481521 3.285466 31.048028 68.087059
2003-04-14 11:37:52 51°10.08 2°35.78 10.26747 3.283044 31.040304 68.087059
2003-04-14 11:38:52 51°9.88 2°35.95 10.579917 3.278726 31.01124 68.120768
2003-04-14 11:39:52 51°9.76 2°36.26 10.012212 3.303264 31.227803 68.01964
2003-04-14 11:40:52 51°9.7 2°36.63 10.508054 3.297998 31.162316 68.01964
2003-04-14 11:41:52 51°9.65 2°36.9 10.34739 3.277882 30.878026 68.120768
2003-04-14 11:42:52 51°9.6 2°36.99 9.965302 3.263244 30.702862 68.154477
2003-04-14 11:43:52 51°9.57 2°37.02 10.045358 3.265771 30.753854 68.154477
2003-04-14 11:44:52 51°9.54 2°37.02 9.979801 3.272931 30.73502 63.266614
2003-04-14 11:45:52 51°9.53 2°37.01 10.113049 3.275669 30.764228 68.154477
2003-04-14 11:46:52 51°9.53 2°36.99 11.000678 3.277249 30.749568 68.424153
2003-04-14 11:47:52 51°9.53 2°36.98 10.314584 3.27588 30.744728 66.940939
2003-04-14 11:48:52 51°9.51 2°36.95 11.133989 3.275458 30.686271 68.188187
2003-04-14 11:49:52 51°9.47 2°36.9 9.443026 3.27967 30.726387 60.030512
2003-04-14 11:50:52 51°9.45 2°36.83 11.400216 3.275037 30.712875 68.154477
2003-04-14 11:51:52 51°9.44 2°36.75 10.589121 3.277038 30.722841 68.120768
2003-04-14 11:52:52 51°9.42 2°36.69 10.197834 3.280407 30.722511 63.300324
2003-04-14 11:53:52 51°9.4 2°36.64 10.568899 3.281039 30.733389 61.480016
2003-04-14 11:54:52 51°9.38 2°36.59 10.209149 3.278301 30.712179 67.075777
2003-04-14 11:55:52 51°9.36 2°36.53 10.16252 3.277143 30.72682 68.188187
2003-04-14 11:56:52 51°9.35 2°36.47 10.06326 3.275353 30.695257 65.626272
2003-04-14 11:57:52 51°9.33 2°36.42 10.828251 3.278091 30.721521 65.019503
2003-04-14 11:58:52 51°9.31 2°36.36 11.712091 3.283672 30.782362 68.221896
2003-04-14 11:59:52 51°9.29 2°36.31 10.392861 3.278196 30.739201 68.356734
2003-04-14 12:00:52 51°9.27 2°36.25 10.842143 3.282619 30.780092 68.120768
2003-04-14 12:01:52 51°9.26 2°36.19 10.665678 3.282514 30.802133 68.154477
2003-04-14 12:02:52 51°9.24 2°36.14 9.730431 3.283673 30.801876 68.154477
2003-04-14 12:03:52 51°9.22 2°36.08 10.123162 3.283673 30.807663 68.154477
2003-04-14 12:04:52 51°9.2 2°36.03 10.317525 3.281672 30.804953 68.457862
2003-04-14 12:05:52 51°9.18 2°35.97 10.622858 3.281883 30.834681 68.154477
2003-04-14 12:06:52 51°9.16 2°35.92 9.994531 3.283568 30.839162 68.154477
2003-04-14 12:07:52 51°9.14 2°35.86 11.317753 3.286727 30.850277 68.120768
2003-04-14 12:08:52 51°9.12 2°35.8 10.232521 3.291887 30.913389 68.188187
2003-04-14 12:09:52 51°9.1 2°35.75 10.702531 3.293151 30.927992 68.087059
2003-04-14 12:10:52 51°9.08 2°35.69 11.471158 3.294941 30.945168 68.154477
2003-04-14 12:11:52 51°9.06 2°35.64 10.108976 3.29947 30.982103 68.188187
2003-04-14 12:12:52 51°9.04 2°35.58 10.550902 3.294626 31.007477 68.120768
2003-04-14 12:13:52 51°9.02 2°35.52 10.934036 3.294942 30.994709 68.120768
2003-04-14 12:14:52 51°9 2°35.47 10.859134 3.29947 31.006874 68.120768
2003-04-14 12:15:52 51°8.98 2°35.41 10.524387 3.298839 31.02218 68.087059
2003-04-14 12:16:52 51°8.96 2°35.36 10.50312 3.301892 31.012409 68.221896
2003-04-14 12:17:52 51°8.94 2°35.3 10.991762 3.302735 31.013161 68.120768
2003-04-14 12:18:52 51°8.92 2°35.24 10.597069 3.305262 31.027072 68.154477
2003-04-14 12:19:52 51°8.9 2°35.18 10.405121 3.304104 31.052942 68.120768
2003-04-14 12:20:52 51°8.87 2°35.13 11.482852 3.299787 31.060567 68.087059
2003-04-14 12:21:52 51°8.86 2°35.08 11.181314 3.300208 31.070817 68.120768
2003-04-14 12:22:52 51°8.85 2°35.03 11.726255 3.302104 31.08913 68.053349
2003-04-14 12:23:52 51°8.84 2°35 10.067336 3.302631 31.126162 68.053349
2003-04-14 12:24:52 51°8.83 2°34.96 10.245839 3.302736 31.139015 68.053349
2003-04-14 12:25:52 51°8.82 2°34.94 13.13024 3.304947 31.117332 68.087059
2003-04-14 12:26:52 51°8.8 2°34.91 10.1497 3.303157 31.108181 68.01964
2003-04-14 12:27:52 51°8.79 2°34.8 10.177443 3.303683 31.104146 68.087059
2003-04-14 12:28:52 51°8.83 2°34.7 12.95027 3.303157 31.092059 68.087059
2003-04-14 12:29:52 51°8.88 2°34.67 11.031942 3.302103 31.067902 68.087059
2003-04-14 12:30:52 51°8.92 2°34.66 13.044481 3.301682 31.055467 68.120768
2003-04-14 12:31:52 51°8.96 2°34.66 9.864707 3.301893 31.039398 68.120768
2003-04-14 12:32:52 51°8.99 2°34.67 12.88489 3.302735 31.033576 68.188187
2003-04-14 12:33:52 51°9.05 2°34.72 11.59693 3.302524 31.030653 68.154477
2003-04-14 12:34:52 51°9.1 2°34.8 10.414769 3.299786 31.015269 68.188187
2003-04-14 12:35:52 51°9.16 2°34.91 10.508845 3.295153 31.029051 68.087059
2003-04-14 12:36:52 51°9.2 2°35 11.035358 3.292836 31.021697 68.120768
2003-04-14 12:37:52 51°9.23 2°35.06 10.624624 3.2961 31.003134 68.120768
2003-04-14 12:38:52 51°9.26 2°35.12 10.835892 3.2961 30.989273 68.188187
2003-04-14 12:39:52 51°9.29 2°35.15 10.951928 3.299154 31.002855 68.356734
2003-04-14 12:40:52 51°9.32 2°35.21 11.649322 3.300839 30.995621 68.390443
2003-04-14 12:41:52 51°9.35 2°35.27 10.820285 3.302314 31.030648 68.188187
2003-04-14 12:42:52 51°9.37 2°35.31 10.782756 3.298838 31.008315 68.154477
2003-04-14 12:43:52 51°9.4 2°35.35 10.673106 3.302629 31.023727 68.188187
2003-04-14 12:44:52 51°9.41 2°35.37 10.337918 3.303366 31.013908 68.120768
2003-04-14 12:45:52 51°9.43 2°35.41 11.578846 3.305579 31.07049 68.154477
2003-04-14 12:46:52 51°9.51 2°35.62 10.603529 3.303999 31.090595 68.053349
2003-04-14 12:47:52 51°9.61 2°35.91 10.125128 3.303788 31.067185 68.120768
2003-04-14 12:48:52 51°9.73 2°36.24 10.513545 3.302841 31.094623 68.087059
2003-04-14 12:49:52 51°9.83 2°36.58 10.527411 3.304526 31.105608 68.087059
2003-04-14 12:50:52 51°9.93 2°36.93 10.631359 3.303262 31.095355 68.087059
2003-04-14 12:51:52 51°10.04 2°37.27 10.087995 3.302419 31.00259 68.087059
2003-04-14 12:52:52 51°10.14 2°37.62 10.701696 3.296731 30.938351 68.154477
2003-04-14 12:53:52 51°10.24 2°37.95 10.689166 3.295573 30.916867 68.188187
2003-04-14 12:54:52 51°10.34 2°38.29 10.493718 3.268615 30.7886 68.154477
2003-04-14 12:55:52 51°10.4 2°38.64 10.168181 3.24966 30.659654 68.154477
2003-04-14 12:56:52 51°10.46 2°39 10.272421 3.250186 30.634717 68.221896
2003-04-14 12:57:52 51°10.52 2°39.37 10.477796 3.258293 30.600076 39.467777
2003-04-14 12:58:52 51°10.58 2°39.73 10.82802 3.263032 30.62559 39.804871
2003-04-14 12:59:52 51°10.63 2°40.09 11.073573 3.270929 30.628507 37.310375
2003-04-14 13:00:52 51°10.7 2°40.46 10.798929 3.26777 30.635965 49.883982
2003-04-14 13:01:52 51°10.76 2°40.82 10.476167 3.278406 30.664378 61.884529
2003-04-14 13:02:52 51°10.86 2°41.02 10.744604 3.266928 30.650245 56.491024
2003-04-14 13:03:52 51°10.92 2°40.96 10.58689 3.269244 30.583071 31.883161
2003-04-14 13:04:52 51°10.91 2°40.86 10.486409 3.265349 30.632391 50.457042
2003-04-14 13:05:52 51°10.82 2°40.79 10.42134 3.268402 30.621678 36.636187
2003-04-14 13:06:52 51°10.74 2°40.85 10.219107 3.271877 30.649835 44.153383
2003-04-14 13:07:52 51°10.74 2°40.91 10.19587 3.27114 30.628538 51.232358
2003-04-14 13:08:52 51°10.74 2°40.92 11.507333 3.270403 30.648914 61.715982
2003-04-14 13:09:52 51°10.75 2°40.93 9.664934 3.275141 30.634858 42.198238
2003-04-14 13:10:52 51°10.76 2°40.94 10.8245 3.272087 30.597486 45.232084
2003-04-14 13:11:52 51°10.76 2°40.95 10.344264 3.266296 30.635761 68.154477
2003-04-14 13:12:52 51°10.77 2°40.95 10.84844 3.257346 30.589499 68.188187
2003-04-14 13:13:52 51°10.78 2°40.96 9.864848 3.258715 30.619588 68.154477
2003-04-14 13:14:52 51°10.79 2°40.96 11.042467 3.256503 30.595135 68.087059
2003-04-14 13:15:52 51°10.8 2°40.96 11.571749 3.254503 30.587279 68.120768
2003-04-14 13:16:52 51°10.82 2°40.96 10.315891 3.257451 30.620857 68.154477
2003-04-14 13:17:52 51°10.83 2°40.97 10.201996 3.269665 30.589585 54.165076
2003-04-14 13:18:52 51°10.84 2°40.97 10.328352 3.26398 30.61529 67.075777
2003-04-14 13:19:52 51°10.86 2°40.98 10.621465 3.259031 30.634416 68.120768
2003-04-14 13:20:52 51°10.87 2°40.98 10.164532 3.25345 30.601547 68.154477
2003-04-14 13:21:52 51°10.88 2°40.99 11.118682 3.250923 30.578105 68.188187
2003-04-14 13:22:52 51°10.9 2°40.99 10.834133 3.255556 30.616991 68.323024
2003-04-14 13:23:52 51°10.91 2°41 10.001145 3.253766 30.616386 65.794819
2003-04-14 13:24:52 51°10.92 2°41.01 10.627597 3.25503 30.622333 67.042067
2003-04-14 13:25:52 51°10.93 2°41.01 10.181747 3.25703 30.625128 64.817247
2003-04-14 13:26:52 51°10.95 2°41.01 11.098115 3.25882 30.621405 62.187913
2003-04-14 13:27:52 51°10.96 2°41.02 10.449015 3.259663 30.633058 66.570136
2003-04-14 13:28:52 51°10.97 2°41.02 10.671714 3.261979 30.635532 65.18805
2003-04-14 13:29:52 51°10.98 2°41.02 10.245092 3.263559 30.635385 62.626136
2003-04-14 13:30:52 51°10.99 2°41.02 10.950911 3.267665 30.635591 50.827845
2003-04-14 13:31:52 51°11.01 2°41.02 10.037343 3.272825 30.638113 43.411777
2003-04-14 13:32:52 51°11.02 2°41.02 10.804488 3.2763 30.641122 37.242956
2003-04-14 13:33:52 51°11.04 2°41.03 10.650588 3.278932 30.640428 37.411503
2003-04-14 13:34:52 51°11.05 2°41.03 10.900598 3.280301 30.64027 34.950717
2003-04-14 13:35:52 51°11.06 2°41.03 10.829548 3.279248 30.636534 38.72617
2003-04-14 13:36:52 51°11.07 2°41.03 10.831354 3.274088 30.645472 46.513042
2003-04-14 13:37:52 51°11.09 2°41.03 10.193485 3.264506 30.641637 52.108802
2003-04-14 13:38:52 51°11.15 2°41.13 11.140534 3.269244 30.622518 35.624905
2003-04-14 13:39:52 51°11.17 2°41.43 11.170488 3.277142 30.639809 37.108118
2003-04-14 13:40:52 51°11.2 2°41.8 10.821304 3.264612 30.65138 56.457315
2003-04-14 13:41:52 51°11.23 2°42.16 -999 3.269034 30.618897 38.793589
2003-04-14 13:42:52 51°11.25 2°42.53 -999 3.262716 30.613669 44.726443
2003-04-14 13:43:52 51°11.28 2°42.9 -999 3.265137 30.588521 38.15311
2003-04-14 13:44:52 51°11.3 2°43.26 -999 3.26261 30.520057 35.523777
2003-04-14 13:45:52 51°11.34 2°43.63 -999 3.261661 30.4881 37.748597
2003-04-14 13:46:52 51°11.39 2°43.98 -999 3.259239 30.468019 36.804734
2003-04-14 13:47:52 51°11.44 2°44.34 -999 3.263767 30.464987 34.1754
2003-04-14 13:48:52 51°11.5 2°44.69 -999 3.268295 30.442811 30.534785
2003-04-14 13:49:52 51°11.57 2°45.03 -999 3.275665 30.43942 27.669486
2003-04-14 13:50:52 51°11.64 2°45.38 -999 3.281246 30.451585 24.871606
2003-04-14 13:51:52 51°11.71 2°45.73 -999 3.274929 30.463695 29.11899
2003-04-14 13:52:52 51°11.78 2°46.07 -999 3.270927 30.457905 23.927742
2003-04-14 13:53:52 51°11.87 2°46.4 -999 3.26145 30.426818 23.287264
2003-04-14 13:54:52 51°11.97 2°46.73 -999 3.259344 30.419978 20.590512
2003-04-14 13:55:52 51°12.06 2°47.06 -999 3.257238 30.402473 19.376973
2003-04-14 13:56:52 51°12.15 2°47.39 -999 3.258712 30.397111 17.792631
2003-04-14 13:57:52 51°12.24 2°47.72 -999 3.259449 30.387696 16.848768
2003-04-14 13:58:52 51°12.34 2°48.05 -999 3.264082 30.39865 16.680221
2003-04-14 13:59:52 51°12.43 2°48.38 -999 3.266188 30.394873 17.084734
2003-04-14 14:00:52 51°12.53 2°48.71 -999 3.26503 30.397091 18.197144
2003-04-14 14:01:52 51°12.64 2°49.02 -999 3.26345 30.392134 18.3994
2003-04-14 14:02:52 51°12.74 2°49.34 -999 3.261871 30.392135 19.275845
2003-04-14 14:03:52 51°12.85 2°49.65 -999 3.254605 30.352563 19.916324
2003-04-14 14:04:52 51°12.96 2°49.97 -999 3.259343 30.366057 17.961178
2003-04-14 14:05:52 51°13.08 2°50.28 -999 3.259343 30.357561 18.197144
2003-04-14 14:06:52 51°13.19 2°50.59 -999 3.25471 30.338066 18.3994
2003-04-14 14:07:52 51°13.29 2°50.91 -999 3.253341 30.331722 17.893759
2003-04-14 14:08:52 51°13.4 2°51.22 -999 3.250603 30.310533 18.163435
2003-04-14 14:09:52 51°13.51 2°51.54 -999 3.252288 30.30458 17.219571
2003-04-14 14:10:52 51°13.62 2°51.85 -999 3.247971 30.295377 18.43311
2003-04-14 14:11:52 51°13.73 2°52.16 -999 3.24418 30.283818 19.376973
2003-04-14 14:12:52 51°13.78 2°52.38 -999 3.245654 30.268623 16.71393
2003-04-14 14:13:52 51°13.82 2°52.48 -999 3.248918 30.275464 15.500392
2003-04-14 14:14:52 51°13.85 2°52.52 -999 3.251866 30.269164 12.904768
2003-04-14 14:15:52 51°13.88 2°52.55 -999 3.251656 30.264173 12.972187
2003-04-14 14:16:52 51°13.9 2°52.57 -999 3.250287 30.254294 13.578956
2003-04-14 14:17:52 51°13.93 2°52.63 -999 3.249234 30.24485 13.91605
2003-04-14 14:18:52 51°14.05 2°52.86 -999 3.250603 30.269542 14.522819
2003-04-14 14:19:52 51°14.16 2°53.14 -999 3.249339 30.274159 17.388118
2003-04-14 14:20:52 51°14.28 2°53.42 -999 3.244812 30.267701 17.051024
2003-04-14 14:21:52 51°14.39 2°53.69 -999 3.248076 30.246305 15.972324
2003-04-14 14:22:52 51°14.47 2°53.98 -999 3.248075 30.227276 15.466683
2003-04-14 14:23:52 51°14.49 2°54.29 -999 3.248286 30.195677 17.118443
2003-04-14 14:24:52 51°14.48 2°54.58 -999 3.201741 29.590473 22.141144
2003-04-14 14:25:52 51°14.42 2°54.86 -999 3.222486 29.937251 25.984016
2003-04-14 14:26:52 51°14.34 2°55.11 -999 3.232594 29.948531 30.602204